createdAt,value
2017-06-11T00:00:30.247Z,101068.48
2017-06-11T00:03:00.027Z,101064.18
2017-06-11T00:05:29.762Z,101066.21
2017-06-11T00:07:59.469Z,101068.28
2017-06-11T00:10:29.152Z,101068.13
2017-06-11T00:12:58.846Z,101067.87
2017-06-11T00:15:28.504Z,101066.64
2017-06-11T00:17:58.250Z,101063.05
2017-06-11T00:20:27.979Z,101061.33
2017-06-11T00:22:57.680Z,101063.08
2017-06-11T00:25:27.364Z,101067.01
2017-06-11T00:27:57.038Z,101060.48
2017-06-11T00:30:26.731Z,101066.71
2017-06-11T00:32:56.389Z,101061.63
2017-06-11T00:35:26.103Z,101060.18
2017-06-11T00:37:55.791Z,101052.15
2017-06-11T00:40:26.278Z,101050.04
2017-06-11T00:42:56.019Z,101046.19
2017-06-11T00:45:25.685Z,101048.39
2017-06-11T00:47:55.446Z,101052.16
2017-06-11T00:50:25.231Z,101046.29
2017-06-11T00:52:54.903Z,101048.02
2017-06-11T00:55:25.493Z,101050.24
2017-06-11T00:57:55.162Z,101049.70
2017-06-11T01:00:24.852Z,101049.73
2017-06-11T01:02:54.538Z,101041.64
2017-06-11T01:05:24.240Z,101039.42
2017-06-11T01:07:53.963Z,101040.89
2017-06-11T01:10:23.680Z,101047.83
2017-06-11T01:12:53.394Z,101045.41
2017-06-11T01:15:23.799Z,101047.43
2017-06-11T01:17:55.930Z,101044.08
2017-06-11T01:20:30.123Z,101042.22
2017-06-11T01:23:01.453Z,101047.06
2017-06-11T01:25:33.016Z,101043.66
2017-06-11T01:28:05.233Z,101043.63
2017-06-11T01:30:37.345Z,101046.87
2017-06-11T01:33:09.748Z,101044.70
2017-06-11T01:35:44.582Z,101046.38
2017-06-11T01:38:15.955Z,101051.74
2017-06-11T01:40:46.725Z,101049.16
2017-06-11T01:43:17.894Z,101046.05
2017-06-11T01:45:50.259Z,101044.33
2017-06-11T01:48:24.381Z,101049.80
2017-06-11T01:50:55.805Z,101045.00
2017-06-11T01:53:26.926Z,101045.62
2017-06-11T01:55:56.600Z,101046.93
2017-06-11T01:58:26.270Z,101044.55
2017-06-11T02:00:56.554Z,101040.67
2017-06-11T02:03:26.231Z,101038.41
2017-06-11T02:05:55.970Z,101041.95
2017-06-11T02:08:25.683Z,101045.78
2017-06-11T02:10:55.363Z,101041.08
2017-06-11T02:13:25.086Z,101035.73
2017-06-11T02:15:57.085Z,101040.28
2017-06-11T02:18:28.273Z,101038.96
2017-06-11T02:20:58.022Z,101039.53
2017-06-11T02:23:27.691Z,101038.05
2017-06-11T02:25:57.403Z,101039.92
2017-06-11T02:28:27.070Z,101044.64
2017-06-11T02:30:56.794Z,101048.50
2017-06-11T02:33:26.461Z,101036.50
2017-06-11T02:35:56.214Z,101036.19
2017-06-11T02:38:26.517Z,101031.05
2017-06-11T02:40:56.646Z,101034.05
2017-06-11T02:43:28.378Z,101036.77
2017-06-11T02:45:59.005Z,101034.50
2017-06-11T02:48:29.941Z,101035.61
2017-06-11T02:51:00.825Z,101036.48
2017-06-11T02:53:31.116Z,101034.13
2017-06-11T02:56:02.033Z,101035.98
2017-06-11T02:58:32.654Z,101038.41
2017-06-11T03:01:03.667Z,101044.52
2017-06-11T03:03:36.803Z,101044.84
2017-06-11T03:06:09.623Z,101043.83
2017-06-11T03:08:43.014Z,101039.09
2017-06-11T03:11:13.550Z,101043.32
2017-06-11T03:13:44.575Z,101035.03
2017-06-11T03:16:16.844Z,101031.48
2017-06-11T03:18:49.462Z,101031.25
2017-06-11T03:21:20.218Z,101018.78
2017-06-11T03:23:51.474Z,101019.45
2017-06-11T03:26:21.707Z,101013.70
2017-06-11T03:28:51.481Z,101006.67
2017-06-11T03:31:22.693Z,101007.70
2017-06-11T03:33:52.780Z,101002.75
2017-06-11T03:36:22.965Z,101008.20
2017-06-11T03:38:54.449Z,101008.41
2017-06-11T03:41:25.337Z,101021.48
2017-06-11T03:43:56.928Z,101014.75
2017-06-11T03:46:30.038Z,101010.94
2017-06-11T03:49:01.443Z,101012.53
2017-06-11T03:51:32.452Z,101014.73
2017-06-11T03:54:04.222Z,101028.27
2017-06-11T03:56:36.690Z,101027.00
2017-06-11T03:59:07.303Z,101031.74
2017-06-11T04:01:38.966Z,101027.33
2017-06-11T04:04:11.772Z,101023.22
2017-06-11T04:06:43.510Z,101021.29
2017-06-11T04:09:14.014Z,101028.52
2017-06-11T04:11:44.966Z,101025.67
2017-06-11T04:14:15.775Z,101012.75
2017-06-11T04:16:49.109Z,101009.17
2017-06-11T04:19:20.604Z,101016.11
2017-06-11T04:21:54.015Z,101019.83
2017-06-11T04:24:24.200Z,101021.67
2017-06-11T04:26:54.944Z,101025.94
2017-06-11T04:29:25.001Z,101033.03
2017-06-11T04:31:56.174Z,101035.30
2017-06-11T04:34:26.866Z,101028.73
2017-06-11T04:36:57.541Z,101031.16
2017-06-11T04:39:28.155Z,101027.56
2017-06-11T04:41:57.840Z,101021.84
2017-06-11T04:44:27.543Z,101018.97
2017-06-11T04:46:57.236Z,101020.73
2017-06-11T04:49:26.911Z,101020.21
2017-06-11T04:51:56.601Z,101027.23
2017-06-11T04:54:26.294Z,101020.58
2017-06-11T04:56:56.009Z,101030.89
2017-06-11T04:59:25.674Z,101020.75
2017-06-11T05:01:55.344Z,101025.42
2017-06-11T05:04:25.076Z,101024.67
2017-06-11T05:06:54.858Z,101025.14
2017-06-11T05:09:24.608Z,101023.34
2017-06-11T05:11:54.287Z,101024.09
2017-06-11T05:14:24.003Z,101023.61
2017-06-11T05:16:53.675Z,101031.73
2017-06-11T05:19:23.339Z,101032.50
2017-06-11T05:21:53.039Z,101030.93
2017-06-11T05:24:22.771Z,101021.59
2017-06-11T05:26:52.493Z,101026.48
2017-06-11T05:29:22.863Z,101029.38
2017-06-11T05:31:52.586Z,101033.22
2017-06-11T05:34:22.250Z,101034.00
2017-06-11T05:36:51.927Z,101029.72
2017-06-11T05:39:22.554Z,101032.04
2017-06-11T05:41:52.230Z,101028.91
2017-06-11T05:44:21.943Z,101027.37
2017-06-11T05:46:51.610Z,101024.79
2017-06-11T05:49:21.339Z,101032.05
2017-06-11T05:51:51.038Z,101031.95
2017-06-11T05:54:20.775Z,101025.34
2017-06-11T05:56:50.474Z,101031.62
2017-06-11T05:59:20.147Z,101035.92
2017-06-11T06:01:49.851Z,101041.25
2017-06-11T06:04:19.525Z,101022.54
2017-06-11T06:06:49.254Z,101026.95
2017-06-11T06:09:18.922Z,101027.03
2017-06-11T06:11:48.585Z,101039.00
2017-06-11T06:14:18.454Z,101033.48
2017-06-11T06:16:48.118Z,101033.19
2017-06-11T06:19:18.646Z,101030.59
2017-06-11T06:21:48.319Z,101031.30
2017-06-11T06:24:18.043Z,101039.38
2017-06-11T06:26:47.712Z,101039.41
2017-06-11T06:29:17.374Z,101037.89
2017-06-11T06:31:46.875Z,101039.58
2017-06-11T06:34:16.591Z,101038.36
2017-06-11T06:36:46.304Z,101039.10
2017-06-11T06:39:16.003Z,101039.53
2017-06-11T06:41:45.716Z,101033.70
2017-06-11T06:44:15.395Z,101038.28
2017-06-11T06:46:45.164Z,101039.45
2017-06-11T06:49:14.821Z,101034.56
2017-06-11T06:51:44.519Z,101029.59
2017-06-11T06:54:14.225Z,101032.92
2017-06-11T06:56:43.930Z,101023.30
2017-06-11T06:59:13.618Z,101018.77
2017-06-11T07:01:43.287Z,101021.97
2017-06-11T07:04:13.019Z,101019.13
2017-06-11T07:06:42.684Z,101013.94
2017-06-11T07:09:12.360Z,101012.66
2017-06-11T07:11:42.061Z,101011.62
2017-06-11T07:14:11.723Z,101015.12
2017-06-11T07:16:41.420Z,101011.26
2017-06-11T07:19:11.085Z,101008.55
2017-06-11T07:21:40.895Z,101010.03
2017-06-11T07:24:10.560Z,101004.45
2017-06-11T07:26:40.261Z,101000.17
2017-06-11T07:29:09.968Z,100998.08
2017-06-11T07:31:39.810Z,100996.70
2017-06-11T07:34:09.510Z,100994.13
2017-06-11T07:36:39.181Z,101005.05
2017-06-11T07:39:08.922Z,100993.27
2017-06-11T07:41:38.599Z,100996.22
2017-06-11T07:44:08.266Z,100998.66
2017-06-11T07:46:37.967Z,100995.95
2017-06-11T07:49:07.627Z,100999.44
2017-06-11T07:51:37.330Z,100988.01
2017-06-11T07:54:06.873Z,100989.23
2017-06-11T07:56:36.626Z,100993.45
2017-06-11T07:59:06.419Z,100991.43
2017-06-11T08:01:36.095Z,100984.34
2017-06-11T08:04:05.887Z,100981.32
2017-06-11T08:06:35.599Z,100983.45
2017-06-11T08:09:04.610Z,100982.97
2017-06-11T08:11:34.473Z,100978.94
2017-06-11T08:14:04.181Z,100979.91
2017-06-11T08:16:33.849Z,100977.44
2017-06-11T08:19:03.542Z,100970.19
2017-06-11T08:21:33.288Z,100976.67
2017-06-11T08:24:02.972Z,100971.23
2017-06-11T08:26:32.713Z,100977.94
2017-06-11T08:29:02.385Z,100970.03
2017-06-11T08:31:32.198Z,100974.41
2017-06-11T08:34:01.877Z,100975.05
2017-06-11T08:36:31.584Z,100967.94
2017-06-11T08:39:01.474Z,100969.48
2017-06-11T08:41:31.189Z,100970.48
2017-06-11T08:44:01.090Z,100961.95
2017-06-11T08:46:30.763Z,100965.40
2017-06-11T08:49:01.245Z,100962.97
2017-06-11T08:51:30.930Z,100951.58
2017-06-11T08:54:00.800Z,100951.63
2017-06-11T08:56:30.485Z,100950.26
2017-06-11T08:59:00.245Z,100948.18
2017-06-11T09:01:29.933Z,100944.06
2017-06-11T09:03:59.610Z,100947.22
2017-06-11T09:06:29.326Z,100947.66
2017-06-11T09:08:59.094Z,100948.11
2017-06-11T09:11:28.770Z,100948.80
2017-06-11T09:13:58.490Z,100944.04
2017-06-11T09:16:28.160Z,100937.85
2017-06-11T09:18:57.853Z,100941.06
2017-06-11T09:21:27.556Z,100929.70
2017-06-11T09:23:57.305Z,100924.89
2017-06-11T09:26:26.979Z,100929.78
2017-06-11T09:28:56.645Z,100937.63
2017-06-11T09:31:26.355Z,100926.35
2017-06-11T09:33:56.022Z,100921.49
2017-06-11T09:36:25.725Z,100915.44
2017-06-11T09:38:55.416Z,100910.27
2017-06-11T09:41:25.126Z,100905.54
2017-06-11T09:43:54.793Z,100907.30
2017-06-11T09:46:24.466Z,100901.41
2017-06-11T09:48:54.146Z,100895.82
2017-06-11T09:51:23.833Z,100894.25
2017-06-11T09:53:53.590Z,100884.82
2017-06-11T09:56:23.597Z,100883.03
2017-06-11T09:58:53.703Z,100879.16
2017-06-11T10:01:24.957Z,100884.52
2017-06-11T10:03:58.035Z,100878.89
2017-06-11T10:06:28.990Z,100871.46
2017-06-11T10:08:59.429Z,100871.05
2017-06-11T10:11:29.818Z,100865.42
2017-06-11T10:14:00.074Z,100868.05
2017-06-11T10:16:32.418Z,100867.25
2017-06-11T10:19:02.883Z,100875.39
2017-06-11T10:21:34.142Z,100869.23
2017-06-11T10:24:06.148Z,100869.27
2017-06-11T10:26:37.775Z,100865.90
2017-06-11T10:29:09.458Z,100868.22
2017-06-11T10:31:41.355Z,100864.77
2017-06-11T10:34:13.305Z,100864.92
2017-06-11T10:36:46.694Z,100861.30
2017-06-11T10:39:19.357Z,100855.48
2017-06-11T10:41:49.744Z,100857.50
2017-06-11T10:44:21.572Z,100853.45
2017-06-11T10:46:54.679Z,100845.88
2017-06-11T10:49:27.676Z,100851.23
2017-06-11T10:52:00.034Z,100836.48
2017-06-11T10:54:31.680Z,100834.36
2017-06-11T10:57:03.210Z,100825.86
2017-06-11T10:59:35.765Z,100827.05
2017-06-11T11:02:07.119Z,100823.12
2017-06-11T11:04:38.535Z,100820.94
2017-06-11T11:07:10.208Z,100821.36
2017-06-11T11:09:43.227Z,100819.55
2017-06-11T11:12:14.639Z,100820.83
2017-06-11T11:14:45.441Z,100822.74
2017-06-11T11:17:15.853Z,100815.44
2017-06-11T11:19:47.445Z,100816.18
2017-06-11T11:22:17.650Z,100811.20
2017-06-11T11:24:48.690Z,100797.16
2017-06-11T11:27:19.472Z,100805.77
2017-06-11T11:29:50.601Z,100797.94
2017-06-11T11:32:21.811Z,100802.38
2017-06-11T11:34:52.924Z,100804.84
2017-06-11T11:37:23.708Z,100791.06
2017-06-11T11:39:54.566Z,100782.16
2017-06-11T11:42:25.734Z,100781.44
2017-06-11T11:44:55.938Z,100777.71
2017-06-11T11:47:26.058Z,100775.86
2017-06-11T11:49:56.565Z,100776.02
2017-06-11T11:52:27.663Z,100771.20
2017-06-11T11:54:58.610Z,100761.45
2017-06-11T11:57:29.191Z,100751.83
2017-06-11T12:00:00.245Z,100750.14
2017-06-11T12:02:30.749Z,100743.00
2017-06-11T12:05:01.380Z,100741.45
2017-06-11T12:07:32.430Z,100738.41
2017-06-11T12:10:03.733Z,100741.87
2017-06-11T12:12:33.640Z,100730.92
2017-06-11T12:15:03.457Z,100727.45
2017-06-11T12:17:33.600Z,100723.27
2017-06-11T12:20:03.319Z,100721.13
2017-06-11T12:22:33.157Z,100721.60
2017-06-11T12:25:02.855Z,100721.02
2017-06-11T12:27:32.686Z,100714.13
2017-06-11T12:30:03.033Z,100712.13
2017-06-11T12:32:32.825Z,100703.12
2017-06-11T12:35:02.506Z,100710.28
2017-06-11T12:37:32.339Z,100703.88
2017-06-11T12:40:02.192Z,100705.48
2017-06-11T12:42:31.924Z,100698.47
2017-06-11T12:45:01.770Z,100698.37
2017-06-11T12:47:31.534Z,100686.28
2017-06-11T12:50:01.321Z,100695.77
2017-06-11T12:52:30.994Z,100686.48
2017-06-11T12:55:00.706Z,100677.18
2017-06-11T12:57:30.411Z,100676.05
2017-06-11T13:00:00.168Z,100675.66
2017-06-11T13:02:29.839Z,100676.61
2017-06-11T13:04:59.577Z,100672.42
2017-06-11T13:07:29.341Z,100663.17
2017-06-11T13:09:59.095Z,100660.61
2017-06-11T13:12:28.779Z,100665.33
2017-06-11T13:14:58.460Z,100664.41
2017-06-11T13:17:28.216Z,100657.45
2017-06-11T13:19:57.923Z,100652.66
2017-06-11T13:22:27.617Z,100658.02
2017-06-11T13:24:57.293Z,100658.05
2017-06-11T13:27:27.032Z,100642.45
2017-06-11T13:29:56.737Z,100629.06
2017-06-11T13:32:26.455Z,100627.76
2017-06-11T13:34:56.184Z,100629.19
2017-06-11T13:37:25.858Z,100629.73
2017-06-11T13:39:55.574Z,100622.20
2017-06-11T13:42:25.266Z,100612.20
2017-06-11T13:44:55.021Z,100609.52
2017-06-11T13:47:25.553Z,100609.13
2017-06-11T13:49:55.276Z,100597.03
2017-06-11T13:52:24.986Z,100601.07
2017-06-11T13:54:54.695Z,100597.30
2017-06-11T13:57:24.417Z,100595.28
2017-06-11T13:59:54.090Z,100591.75
2017-06-11T14:02:23.880Z,100590.17
2017-06-11T14:04:53.559Z,100584.00
2017-06-11T14:07:23.249Z,100586.28
2017-06-11T14:09:52.805Z,100586.16
2017-06-11T14:12:23.224Z,100585.16
2017-06-11T14:14:54.221Z,100580.92
2017-06-11T14:17:24.885Z,100570.06
2017-06-11T14:19:55.176Z,100569.09
2017-06-11T14:22:24.678Z,100565.72
2017-06-11T14:24:54.161Z,100562.09
2017-06-11T14:27:23.724Z,100559.40
2017-06-11T14:29:53.313Z,100549.22
2017-06-11T14:32:23.024Z,100543.96
2017-06-11T14:34:52.709Z,100547.53
2017-06-11T14:37:22.423Z,100541.91
2017-06-11T14:39:52.142Z,100543.97
2017-06-11T14:42:21.890Z,100536.06
2017-06-11T14:44:51.581Z,100536.71
2017-06-11T14:47:21.250Z,100528.84
2017-06-11T14:49:50.946Z,100529.42
2017-06-11T14:52:20.631Z,100525.39
2017-06-11T14:54:50.365Z,100521.97
2017-06-11T14:57:20.039Z,100516.09
2017-06-11T14:59:49.772Z,100511.78
2017-06-11T15:02:19.525Z,100517.05
2017-06-11T15:04:49.417Z,100509.19
2017-06-11T15:07:20.883Z,100505.95
2017-06-11T15:09:50.552Z,100497.02
2017-06-11T15:12:21.978Z,100488.23
2017-06-11T15:14:52.899Z,100498.80
2017-06-11T15:17:23.908Z,100498.23
2017-06-11T15:19:54.887Z,100489.59
2017-06-11T15:22:25.795Z,100489.32
2017-06-11T15:24:56.621Z,100479.05
2017-06-11T15:27:27.780Z,100481.84
2017-06-11T15:29:58.654Z,100467.18
2017-06-11T15:32:32.303Z,100459.14
2017-06-11T15:35:04.138Z,100454.49
2017-06-11T15:37:35.933Z,100446.47
2017-06-11T15:40:06.733Z,100445.69
2017-06-11T15:42:38.540Z,100435.66
2017-06-11T15:45:09.987Z,100425.90
2017-06-11T15:47:43.342Z,100422.36
2017-06-11T15:50:16.931Z,100423.12
2017-06-11T15:52:52.224Z,100411.40
2017-06-11T15:55:27.012Z,100404.74
2017-06-11T15:57:59.816Z,100397.86
2017-06-11T16:00:32.431Z,100393.83
2017-06-11T16:03:04.048Z,100388.95
2017-06-11T16:05:36.122Z,100383.52
2017-06-11T16:08:09.018Z,100378.63
2017-06-11T16:10:40.699Z,100382.47
2017-06-11T16:13:13.284Z,100374.31
2017-06-11T16:15:43.937Z,100363.67
2017-06-11T16:18:15.431Z,100361.58
2017-06-11T16:20:46.794Z,100360.34
2017-06-11T16:23:17.817Z,100350.80
2017-06-11T16:25:48.495Z,100346.10
2017-06-11T16:28:19.654Z,100339.86
2017-06-11T16:30:50.472Z,100330.34
2017-06-11T16:33:21.148Z,100331.09
2017-06-11T16:35:52.010Z,100317.59
2017-06-11T16:38:22.822Z,100312.77
2017-06-11T16:40:53.346Z,100309.44
2017-06-11T16:43:24.679Z,100314.81
2017-06-11T16:45:55.540Z,100301.42
2017-06-11T16:48:26.349Z,100303.11
2017-06-11T16:50:56.618Z,100300.45
2017-06-11T16:53:27.400Z,100292.97
2017-06-11T16:55:58.338Z,100286.73
2017-06-11T16:58:29.466Z,100283.54
2017-06-11T17:01:01.048Z,100276.74
2017-06-11T17:03:32.680Z,100280.53
2017-06-11T17:06:03.617Z,100270.65
2017-06-11T17:08:34.560Z,100274.83
2017-06-11T17:11:05.394Z,100275.29
2017-06-11T17:13:36.246Z,100276.45
2017-06-11T17:16:07.215Z,100285.09
2017-06-11T17:18:38.168Z,100284.37
2017-06-11T17:21:09.693Z,100278.34
2017-06-11T17:23:41.859Z,100282.58
2017-06-11T17:26:13.612Z,100282.73
2017-06-11T17:28:45.181Z,100282.59
2017-06-11T17:31:16.095Z,100279.38
2017-06-11T17:33:46.257Z,100279.20
2017-06-11T17:36:15.935Z,100280.66
2017-06-11T17:38:45.602Z,100287.13
2017-06-11T17:41:15.437Z,100275.06
2017-06-11T17:43:45.109Z,100276.77
2017-06-11T17:46:14.764Z,100276.36
2017-06-11T17:48:44.525Z,100271.17
2017-06-11T17:51:14.229Z,100265.83
2017-06-11T17:53:44.004Z,100263.89
2017-06-11T17:56:13.771Z,100259.91
2017-06-11T17:58:43.470Z,100250.88
2017-06-11T18:01:13.177Z,100243.47
2017-06-11T18:03:43.024Z,100236.81
2017-06-11T18:06:12.707Z,100224.46
2017-06-11T18:08:42.391Z,100220.02
2017-06-11T18:11:12.094Z,100228.64
2017-06-11T18:13:41.777Z,100231.11
2017-06-11T18:16:11.539Z,100229.27
2017-06-11T18:18:41.258Z,100224.16
2017-06-11T18:21:11.007Z,100226.61
2017-06-11T18:23:40.718Z,100223.38
2017-06-11T18:26:10.407Z,100212.55
2017-06-11T18:28:40.151Z,100212.96
2017-06-11T18:31:09.835Z,100208.35
2017-06-11T18:33:39.577Z,100203.16
2017-06-11T18:36:09.289Z,100192.23
2017-06-11T18:38:38.963Z,100194.09
2017-06-11T18:41:09.481Z,100195.52
2017-06-11T18:43:40.650Z,100192.64
2017-06-11T18:46:12.791Z,100188.45
2017-06-11T18:48:44.299Z,100188.02
2017-06-11T18:51:14.980Z,100189.55
2017-06-11T18:53:44.858Z,100190.47
2017-06-11T18:56:14.606Z,100183.85
2017-06-11T18:58:44.306Z,100172.99
2017-06-11T19:01:13.974Z,100176.70
2017-06-11T19:03:43.741Z,100184.77
2017-06-11T19:06:13.418Z,100189.39
2017-06-11T19:08:43.126Z,100183.47
2017-06-11T19:11:12.841Z,100184.62
2017-06-11T19:13:42.535Z,100184.78
2017-06-11T19:16:12.287Z,100176.14
2017-06-11T19:18:41.997Z,100169.15
2017-06-11T19:21:13.180Z,100171.83
2017-06-11T19:23:42.909Z,100177.77
2017-06-11T19:26:12.617Z,100182.47
2017-06-11T19:28:42.346Z,100195.80
2017-06-11T19:31:12.050Z,100197.79
2017-06-11T19:33:41.782Z,100222.47
2017-06-11T19:36:11.477Z,100231.15
2017-06-11T19:38:41.170Z,100233.95
2017-06-11T19:41:10.875Z,100228.31
2017-06-11T19:43:40.387Z,100235.70
2017-06-11T19:46:10.964Z,100232.17
2017-06-11T19:48:40.678Z,100230.41
2017-06-11T19:51:10.374Z,100223.80
2017-06-11T19:53:40.178Z,100219.49
2017-06-11T19:56:09.856Z,100215.30
2017-06-11T19:58:39.593Z,100215.37
2017-06-11T20:01:09.380Z,100212.36
2017-06-11T20:03:39.922Z,100204.86
2017-06-11T20:06:09.647Z,100193.94
2017-06-11T20:08:40.984Z,100184.87
2017-06-11T20:11:10.715Z,100174.95
2017-06-11T20:13:40.386Z,100166.48
2017-06-11T20:16:10.062Z,100164.20
2017-06-11T20:18:40.631Z,100170.03
2017-06-11T20:21:10.314Z,100163.73
2017-06-11T20:23:40.207Z,100163.88
2017-06-11T20:26:09.890Z,100157.48
2017-06-11T20:28:39.589Z,100149.83
2017-06-11T20:31:09.313Z,100135.25
2017-06-11T20:33:38.981Z,100124.38
2017-06-11T20:36:08.713Z,100122.54
2017-06-11T20:38:38.441Z,100124.28
2017-06-11T20:41:08.126Z,100118.27
2017-06-11T20:43:37.853Z,100129.30
2017-06-11T20:46:08.153Z,100137.99
2017-06-11T20:48:37.913Z,100143.77
2017-06-11T20:51:07.618Z,100142.68
2017-06-11T20:53:38.059Z,100157.00
2017-06-11T20:56:07.860Z,100154.25
2017-06-11T20:58:37.553Z,100149.64
2017-06-11T21:01:07.298Z,100154.05
2017-06-11T21:03:36.987Z,100158.98
2017-06-11T21:06:06.832Z,100155.11
2017-06-11T21:08:36.610Z,100153.82
2017-06-11T21:11:06.294Z,100148.99
2017-06-11T21:13:36.181Z,100139.73
2017-06-11T21:16:05.865Z,100148.13
2017-06-11T21:18:35.650Z,100142.56
2017-06-11T21:21:05.344Z,100132.72
2017-06-11T21:23:35.871Z,100139.59
2017-06-11T21:26:05.598Z,100132.83
2017-06-11T21:28:35.280Z,100135.37
2017-06-11T21:31:04.974Z,100136.46
2017-06-11T21:33:34.678Z,100139.56
2017-06-11T21:36:04.349Z,100135.44
2017-06-11T21:38:34.097Z,100140.12
2017-06-11T21:41:03.779Z,100123.52
2017-06-11T21:43:33.522Z,100127.75
2017-06-11T21:46:03.242Z,100125.59
2017-06-11T21:48:32.932Z,100124.83
2017-06-11T21:51:02.822Z,100117.70
2017-06-11T21:53:32.503Z,100112.34
2017-06-11T21:56:02.354Z,100104.87
2017-06-11T21:58:33.153Z,100100.43
2017-06-11T22:01:02.855Z,100093.03
2017-06-11T22:03:33.163Z,100090.53
2017-06-11T22:06:02.917Z,100091.05
2017-06-11T22:08:32.664Z,100086.86
2017-06-11T22:11:02.482Z,100085.45
2017-06-11T22:13:32.154Z,100096.55
2017-06-11T22:16:02.034Z,100087.07
2017-06-11T22:18:31.718Z,100099.27
2017-06-11T22:21:01.465Z,100099.72
2017-06-11T22:23:31.187Z,100104.20
2017-06-11T22:26:00.869Z,100098.02
2017-06-11T22:28:30.620Z,100099.41
2017-06-11T22:31:00.293Z,100096.19
2017-06-11T22:33:29.978Z,100103.44
2017-06-11T22:35:59.781Z,100099.36
2017-06-11T22:38:29.477Z,100105.31
2017-06-11T22:40:59.192Z,100105.10
2017-06-11T22:43:28.890Z,100104.84
2017-06-11T22:45:58.573Z,100104.25
2017-06-11T22:48:28.290Z,100103.62
2017-06-11T22:50:57.963Z,100102.73
2017-06-11T22:53:27.647Z,100098.80
2017-06-11T22:55:57.327Z,100107.46
2017-06-11T22:58:27.038Z,100110.30
2017-06-11T23:00:56.790Z,100115.83
2017-06-11T23:03:26.477Z,100112.11
2017-06-11T23:05:56.216Z,100111.26
2017-06-11T23:08:25.922Z,100096.48
2017-06-11T23:10:55.630Z,100097.53
2017-06-11T23:13:25.335Z,100094.47
2017-06-11T23:15:55.022Z,100087.66
2017-06-11T23:18:24.759Z,100072.53
2017-06-11T23:20:54.447Z,100070.00
2017-06-11T23:23:24.132Z,100064.53
2017-06-11T23:25:56.778Z,100060.99
2017-06-11T23:28:26.485Z,100059.00
2017-06-11T23:30:56.230Z,100054.13
2017-06-11T23:33:25.900Z,100060.88
2017-06-11T23:35:55.590Z,100061.97
2017-06-11T23:38:25.299Z,100057.61
2017-06-11T23:40:54.951Z,100042.78
2017-06-11T23:43:24.669Z,100037.44
2017-06-11T23:45:54.370Z,100037.61
2017-06-11T23:48:24.042Z,100036.83
2017-06-11T23:50:53.772Z,100031.55
2017-06-11T23:53:23.445Z,100028.33
2017-06-11T23:55:53.193Z,100019.98
2017-06-11T23:58:22.870Z,100022.97
